sensor_id;sensor_type;location;lat;lon;timestamp;P1;durP1;ratioP1;P2;durP2;ratioP2
7527;SDS011;3805;49.006;8.514;2023-03-14T00:02:07;1.90;;;1.70;;
7527;SDS011;3805;49.006;8.514;2023-03-14T00:04:56;2.07;;;1.97;;
7527;SDS011;3805;49.006;8.514;2023-03-14T00:07:44;1.50;;;1.40;;
7527;SDS011;3805;49.006;8.514;2023-03-14T00:10:33;3.13;;;1.53;;
7527;SDS011;3805;49.006;8.514;2023-03-14T00:13:23;1.67;;;1.20;;
7527;SDS011;3805;49.006;8.514;2023-03-14T00:16:14;2.40;;;1.80;;
7527;SDS011;3805;49.006;8.514;2023-03-14T00:19:04;3.50;;;2.03;;
7527;SDS011;3805;49.006;8.514;2023-03-14T00:21:52;1.70;;;1.30;;
7527;SDS011;3805;49.006;8.514;2023-03-14T00:24:41;1.57;;;1.47;;
7527;SDS011;3805;49.006;8.514;2023-03-14T00:27:29;2.00;;;1.60;;
7527;SDS011;3805;49.006;8.514;2023-03-14T00:30:18;2.50;;;1.53;;
7527;SDS011;3805;49.006;8.514;2023-03-14T00:33:08;2.90;;;1.93;;
7527;SDS011;3805;49.006;8.514;2023-03-14T00:35:58;1.53;;;1.27;;
7527;SDS011;3805;49.006;8.514;2023-03-14T00:38:48;3.00;;;1.90;;
7527;SDS011;3805;49.006;8.514;2023-03-14T00:41:37;1.60;;;1.50;;
7527;SDS011;3805;49.006;8.514;2023-03-14T00:44:26;1.53;;;1.43;;
7527;SDS011;3805;49.006;8.514;2023-03-14T00:47:14;2.03;;;1.57;;
7527;SDS011;3805;49.006;8.514;2023-03-14T00:50:04;2.13;;;1.30;;
7527;SDS011;3805;49.006;8.514;2023-03-14T00:52:54;2.80;;;1.40;;
7527;SDS011;3805;49.006;8.514;2023-03-14T00:55:43;2.37;;;1.60;;
7527;SDS011;3805;49.006;8.514;2023-03-14T00:58:31;2.33;;;1.50;;
7527;SDS011;3805;49.006;8.514;2023-03-14T01:01:20;1.50;;;1.40;;
7527;SDS011;3805;49.006;8.514;2023-03-14T01:04:08;1.90;;;1.50;;
7527;SDS011;3805;49.006;8.514;2023-03-14T01:06:58;1.23;;;1.13;;
7527;SDS011;3805;49.006;8.514;2023-03-14T01:09:47;3.87;;;1.40;;
7527;SDS011;3805;49.006;8.514;2023-03-14T01:12:35;1.20;;;1.10;;
7527;SDS011;3805;49.006;8.514;2023-03-14T01:15:31;2.90;;;1.40;;
7527;SDS011;3805;49.006;8.514;2023-03-14T01:18:20;1.23;;;1.07;;
7527;SDS011;3805;49.006;8.514;2023-03-14T01:21:09;1.53;;;1.40;;
7527;SDS011;3805;49.006;8.514;2023-03-14T01:24:01;1.50;;;1.30;;
7527;SDS011;3805;49.006;8.514;2023-03-14T01:26:51;2.93;;;1.70;;
7527;SDS011;3805;49.006;8.514;2023-03-14T01:29:40;2.30;;;1.70;;
7527;SDS011;3805;49.006;8.514;2023-03-14T01:32:28;3.23;;;1.60;;
7527;SDS011;3805;49.006;8.514;2023-03-14T01:35:17;1.60;;;1.50;;
7527;SDS011;3805;49.006;8.514;2023-03-14T01:38:05;1.40;;;1.30;;
7527;SDS011;3805;49.006;8.514;2023-03-14T01:40:55;3.70;;;1.40;;
7527;SDS011;3805;49.006;8.514;2023-03-14T01:43:44;2.33;;;1.60;;
7527;SDS011;3805;49.006;8.514;2023-03-14T01:46:37;1.80;;;1.60;;
7527;SDS011;3805;49.006;8.514;2023-03-14T01:49:27;1.73;;;1.40;;
7527;SDS011;3805;49.006;8.514;2023-03-14T01:52:18;1.43;;;1.33;;
7527;SDS011;3805;49.006;8.514;2023-03-14T01:55:09;4.40;;;1.57;;
7527;SDS011;3805;49.006;8.514;2023-03-14T01:58:02;3.70;;;2.27;;
7527;SDS011;3805;49.006;8.514;2023-03-14T02:00:52;1.70;;;1.60;;
7527;SDS011;3805;49.006;8.514;2023-03-14T02:03:45;1.90;;;1.77;;
7527;SDS011;3805;49.006;8.514;2023-03-14T02:06:40;1.50;;;1.30;;
7527;SDS011;3805;49.006;8.514;2023-03-14T02:09:33;2.60;;;1.40;;
7527;SDS011;3805;49.006;8.514;2023-03-14T02:12:21;1.57;;;1.40;;
7527;SDS011;3805;49.006;8.514;2023-03-14T02:15:11;3.10;;;1.60;;
7527;SDS011;3805;49.006;8.514;2023-03-14T02:18:00;1.50;;;1.40;;
7527;SDS011;3805;49.006;8.514;2023-03-14T02:20:51;1.60;;;1.40;;
7527;SDS011;3805;49.006;8.514;2023-03-14T02:23:43;2.13;;;1.47;;
7527;SDS011;3805;49.006;8.514;2023-03-14T02:26:38;2.27;;;1.60;;
7527;SDS011;3805;49.006;8.514;2023-03-14T02:29:30;3.00;;;1.10;;
7527;SDS011;3805;49.006;8.514;2023-03-14T02:32:20;1.50;;;1.40;;
7527;SDS011;3805;49.006;8.514;2023-03-14T02:35:11;1.57;;;1.47;;
7527;SDS011;3805;49.006;8.514;2023-03-14T02:38:03;1.40;;;1.30;;
7527;SDS011;3805;49.006;8.514;2023-03-14T02:40:56;2.80;;;1.57;;
7527;SDS011;3805;49.006;8.514;2023-03-14T02:43:45;1.93;;;1.37;;
7527;SDS011;3805;49.006;8.514;2023-03-14T02:46:35;2.07;;;1.80;;
7527;SDS011;3805;49.006;8.514;2023-03-14T02:49:23;1.50;;;1.30;;
7527;SDS011;3805;49.006;8.514;2023-03-14T02:52:13;2.50;;;1.53;;
7527;SDS011;3805;49.006;8.514;2023-03-14T02:55:01;2.00;;;1.50;;
7527;SDS011;3805;49.006;8.514;2023-03-14T02:57:50;2.23;;;1.43;;
7527;SDS011;3805;49.006;8.514;2023-03-14T03:00:39;3.43;;;1.60;;
7527;SDS011;3805;49.006;8.514;2023-03-14T03:03:29;3.30;;;1.60;;
7527;SDS011;3805;49.006;8.514;2023-03-14T03:06:17;3.13;;;1.60;;
7527;SDS011;3805;49.006;8.514;2023-03-14T03:09:06;1.50;;;1.40;;
7527;SDS011;3805;49.006;8.514;2023-03-14T03:11:54;2.33;;;1.70;;
7527;SDS011;3805;49.006;8.514;2023-03-14T03:14:43;1.70;;;1.40;;
7527;SDS011;3805;49.006;8.514;2023-03-14T03:17:31;2.40;;;1.50;;
7527;SDS011;3805;49.006;8.514;2023-03-14T03:20:21;2.90;;;1.50;;
7527;SDS011;3805;49.006;8.514;2023-03-14T03:23:10;2.90;;;1.43;;
7527;SDS011;3805;49.006;8.514;2023-03-14T03:25:58;1.50;;;1.40;;
7527;SDS011;3805;49.006;8.514;2023-03-14T03:28:47;2.03;;;1.10;;
7527;SDS011;3805;49.006;8.514;2023-03-14T03:31:38;1.80;;;1.27;;
7527;SDS011;3805;49.006;8.514;2023-03-14T03:34:27;2.63;;;1.53;;
7527;SDS011;3805;49.006;8.514;2023-03-14T03:37:17;2.20;;;1.43;;
7527;SDS011;3805;49.006;8.514;2023-03-14T03:40:06;1.93;;;1.73;;
7527;SDS011;3805;49.006;8.514;2023-03-14T03:42:56;2.00;;;1.37;;
7527;SDS011;3805;49.006;8.514;2023-03-14T03:45:44;3.60;;;1.87;;
7527;SDS011;3805;49.006;8.514;2023-03-14T03:48:33;1.97;;;1.50;;
7527;SDS011;3805;49.006;8.514;2023-03-14T03:51:21;2.50;;;1.50;;
7527;SDS011;3805;49.006;8.514;2023-03-14T03:54:11;1.87;;;1.30;;
7527;SDS011;3805;49.006;8.514;2023-03-14T03:57:00;2.37;;;1.60;;
7527;SDS011;3805;49.006;8.514;2023-03-14T03:59:48;1.20;;;1.10;;
7527;SDS011;3805;49.006;8.514;2023-03-14T04:02:37;5.00;;;1.50;;
7527;SDS011;3805;49.006;8.514;2023-03-14T04:05:26;3.60;;;1.60;;
7527;SDS011;3805;49.006;8.514;2023-03-14T04:08:14;1.93;;;1.20;;
7527;SDS011;3805;49.006;8.514;2023-03-14T04:11:04;2.60;;;1.57;;
7527;SDS011;3805;49.006;8.514;2023-03-14T04:13:53;1.70;;;1.40;;
7527;SDS011;3805;49.006;8.514;2023-03-14T04:16:42;1.93;;;1.33;;
7527;SDS011;3805;49.006;8.514;2023-03-14T04:19:30;3.27;;;1.93;;
7527;SDS011;3805;49.006;8.514;2023-03-14T04:22:19;3.10;;;1.57;;
7527;SDS011;3805;49.006;8.514;2023-03-14T04:25:07;1.47;;;1.30;;
7527;SDS011;3805;49.006;8.514;2023-03-14T04:27:58;2.70;;;1.70;;
7527;SDS011;3805;49.006;8.514;2023-03-14T04:30:46;3.47;;;1.90;;
7527;SDS011;3805;49.006;8.514;2023-03-14T04:33:35;2.60;;;1.67;;
7527;SDS011;3805;49.006;8.514;2023-03-14T04:36:24;2.10;;;1.30;;
7527;SDS011;3805;49.006;8.514;2023-03-14T04:39:12;2.73;;;1.43;;
7527;SDS011;3805;49.006;8.514;2023-03-14T04:42:01;2.00;;;1.77;;
7527;SDS011;3805;49.006;8.514;2023-03-14T04:44:51;2.40;;;1.50;;
7527;SDS011;3805;49.006;8.514;2023-03-14T04:47:39;1.90;;;1.60;;
7527;SDS011;3805;49.006;8.514;2023-03-14T04:50:28;4.87;;;1.70;;
7527;SDS011;3805;49.006;8.514;2023-03-14T04:53:17;2.27;;;1.30;;
7527;SDS011;3805;49.006;8.514;2023-03-14T04:56:06;5.70;;;1.50;;
7527;SDS011;3805;49.006;8.514;2023-03-14T04:58:55;3.03;;;1.30;;
7527;SDS011;3805;49.006;8.514;2023-03-14T05:01:45;3.00;;;1.30;;
7527;SDS011;3805;49.006;8.514;2023-03-14T05:04:35;1.60;;;1.50;;
7527;SDS011;3805;49.006;8.514;2023-03-14T05:07:24;1.83;;;1.43;;
7527;SDS011;3805;49.006;8.514;2023-03-14T05:10:12;3.87;;;1.67;;
7527;SDS011;3805;49.006;8.514;2023-03-14T05:13:01;1.93;;;1.60;;
7527;SDS011;3805;49.006;8.514;2023-03-14T05:15:50;2.37;;;1.40;;
7527;SDS011;3805;49.006;8.514;2023-03-14T05:18:40;1.87;;;1.23;;
7527;SDS011;3805;49.006;8.514;2023-03-14T05:21:28;4.17;;;1.50;;
7527;SDS011;3805;49.006;8.514;2023-03-14T05:24:17;1.43;;;1.30;;
7527;SDS011;3805;49.006;8.514;2023-03-14T05:27:05;1.20;;;1.10;;
7527;SDS011;3805;49.006;8.514;2023-03-14T05:29:54;1.90;;;1.40;;
7527;SDS011;3805;49.006;8.514;2023-03-14T05:32:42;6.10;;;1.40;;
7527;SDS011;3805;49.006;8.514;2023-03-14T05:35:32;5.47;;;1.53;;
7527;SDS011;3805;49.006;8.514;2023-03-14T05:38:21;3.00;;;1.40;;
7527;SDS011;3805;49.006;8.514;2023-03-14T05:41:10;2.03;;;1.20;;
7527;SDS011;3805;49.006;8.514;2023-03-14T05:43:58;1.33;;;1.13;;
7527;SDS011;3805;49.006;8.514;2023-03-14T05:46:47;2.10;;;1.10;;
7527;SDS011;3805;49.006;8.514;2023-03-14T05:49:36;1.93;;;1.60;;
7527;SDS011;3805;49.006;8.514;2023-03-14T05:52:26;1.67;;;1.20;;
7527;SDS011;3805;49.006;8.514;2023-03-14T05:55:15;2.80;;;1.30;;
7527;SDS011;3805;49.006;8.514;2023-03-14T05:58:03;1.77;;;1.00;;
7527;SDS011;3805;49.006;8.514;2023-03-14T06:00:52;1.93;;;1.20;;
7527;SDS011;3805;49.006;8.514;2023-03-14T06:03:41;2.10;;;1.10;;
7527;SDS011;3805;49.006;8.514;2023-03-14T06:06:29;1.40;;;1.10;;
7527;SDS011;3805;49.006;8.514;2023-03-14T06:09:20;2.10;;;1.30;;
7527;SDS011;3805;49.006;8.514;2023-03-14T06:12:10;3.53;;;1.60;;
7527;SDS011;3805;49.006;8.514;2023-03-14T06:14:59;1.70;;;1.60;;
7527;SDS011;3805;49.006;8.514;2023-03-14T06:17:47;1.10;;;1.00;;
7527;SDS011;3805;49.006;8.514;2023-03-14T06:20:36;5.00;;;1.20;;
7527;SDS011;3805;49.006;8.514;2023-03-14T06:23:26;1.30;;;1.20;;
7527;SDS011;3805;49.006;8.514;2023-03-14T06:26:18;2.40;;;1.50;;
7527;SDS011;3805;49.006;8.514;2023-03-14T06:29:07;1.50;;;1.33;;
7527;SDS011;3805;49.006;8.514;2023-03-14T06:31:56;2.63;;;1.27;;
7527;SDS011;3805;49.006;8.514;2023-03-14T06:34:47;2.90;;;1.20;;
7527;SDS011;3805;49.006;8.514;2023-03-14T06:37:36;1.67;;;1.57;;
7527;SDS011;3805;49.006;8.514;2023-03-14T06:40:25;4.00;;;1.30;;
7527;SDS011;3805;49.006;8.514;2023-03-14T06:43:15;2.43;;;1.13;;
7527;SDS011;3805;49.006;8.514;2023-03-14T06:46:04;1.50;;;1.30;;
7527;SDS011;3805;49.006;8.514;2023-03-14T06:48:55;1.40;;;1.20;;
7527;SDS011;3805;49.006;8.514;2023-03-14T06:51:43;2.53;;;1.50;;
7527;SDS011;3805;49.006;8.514;2023-03-14T06:54:32;3.40;;;1.57;;
7527;SDS011;3805;49.006;8.514;2023-03-14T06:57:21;1.37;;;1.27;;
7527;SDS011;3805;49.006;8.514;2023-03-14T07:00:12;1.20;;;1.10;;
7527;SDS011;3805;49.006;8.514;2023-03-14T07:03:02;2.93;;;1.50;;
7527;SDS011;3805;49.006;8.514;2023-03-14T07:05:50;1.50;;;1.40;;
7527;SDS011;3805;49.006;8.514;2023-03-14T07:08:39;2.20;;;1.20;;
7527;SDS011;3805;49.006;8.514;2023-03-14T07:11:29;1.50;;;1.10;;
7527;SDS011;3805;49.006;8.514;2023-03-14T07:14:17;2.90;;;1.40;;
7527;SDS011;3805;49.006;8.514;2023-03-14T07:17:09;1.60;;;1.40;;
7527;SDS011;3805;49.006;8.514;2023-03-14T07:19:58;1.50;;;1.10;;
7527;SDS011;3805;49.006;8.514;2023-03-14T07:22:48;2.30;;;1.30;;
7527;SDS011;3805;49.006;8.514;2023-03-14T07:25:37;1.63;;;1.33;;
7527;SDS011;3805;49.006;8.514;2023-03-14T07:28:26;1.30;;;1.20;;
7527;SDS011;3805;49.006;8.514;2023-03-14T07:31:15;1.30;;;1.10;;
7527;SDS011;3805;49.006;8.514;2023-03-14T07:34:05;1.90;;;1.17;;
7527;SDS011;3805;49.006;8.514;2023-03-14T07:36:54;1.93;;;1.23;;
7527;SDS011;3805;49.006;8.514;2023-03-14T07:39:42;1.60;;;1.33;;
7527;SDS011;3805;49.006;8.514;2023-03-14T07:42:31;1.20;;;1.07;;
7527;SDS011;3805;49.006;8.514;2023-03-14T07:45:20;4.47;;;1.63;;
7527;SDS011;3805;49.006;8.514;2023-03-14T07:48:11;1.97;;;1.20;;
7527;SDS011;3805;49.006;8.514;2023-03-14T07:51:01;3.27;;;1.27;;
7527;SDS011;3805;49.006;8.514;2023-03-14T07:53:49;1.53;;;1.10;;
7527;SDS011;3805;49.006;8.514;2023-03-14T07:56:38;1.80;;;1.20;;
7527;SDS011;3805;49.006;8.514;2023-03-14T07:59:26;3.00;;;1.40;;
7527;SDS011;3805;49.006;8.514;2023-03-14T08:02:15;1.97;;;1.43;;
7527;SDS011;3805;49.006;8.514;2023-03-14T08:05:05;1.10;;;1.00;;
7527;SDS011;3805;49.006;8.514;2023-03-14T08:07:55;6.40;;;1.47;;
7527;SDS011;3805;49.006;8.514;2023-03-14T08:10:45;1.27;;;1.10;;
7527;SDS011;3805;49.006;8.514;2023-03-14T08:13:34;1.60;;;1.50;;
7527;SDS011;3805;49.006;8.514;2023-03-14T08:16:23;1.23;;;1.10;;
7527;SDS011;3805;49.006;8.514;2023-03-14T08:19:11;1.70;;;1.13;;
7527;SDS011;3805;49.006;8.514;2023-03-14T08:22:00;1.37;;;1.20;;
7527;SDS011;3805;49.006;8.514;2023-03-14T08:24:50;1.97;;;1.30;;
7527;SDS011;3805;49.006;8.514;2023-03-14T08:27:39;1.20;;;1.07;;
7527;SDS011;3805;49.006;8.514;2023-03-14T08:30:28;2.23;;;1.30;;
7527;SDS011;3805;49.006;8.514;2023-03-14T08:33:17;1.53;;;1.30;;
7527;SDS011;3805;49.006;8.514;2023-03-14T08:36:06;1.87;;;1.33;;
7527;SDS011;3805;49.006;8.514;2023-03-14T08:38:55;1.50;;;1.40;;
7527;SDS011;3805;49.006;8.514;2023-03-14T08:41:46;1.20;;;1.10;;
7527;SDS011;3805;49.006;8.514;2023-03-14T08:44:34;1.20;;;1.00;;
7527;SDS011;3805;49.006;8.514;2023-03-14T08:47:23;2.73;;;1.30;;
7527;SDS011;3805;49.006;8.514;2023-03-14T08:50:12;1.30;;;1.20;;
7527;SDS011;3805;49.006;8.514;2023-03-14T08:53:02;1.57;;;0.90;;
7527;SDS011;3805;49.006;8.514;2023-03-14T08:55:52;1.40;;;1.07;;
7527;SDS011;3805;49.006;8.514;2023-03-14T08:58:43;1.53;;;1.10;;
7527;SDS011;3805;49.006;8.514;2023-03-14T09:01:31;3.13;;;1.27;;
7527;SDS011;3805;49.006;8.514;2023-03-14T09:04:20;1.27;;;1.10;;
7527;SDS011;3805;49.006;8.514;2023-03-14T09:07:09;2.03;;;1.00;;
7527;SDS011;3805;49.006;8.514;2023-03-14T09:09:57;2.70;;;1.23;;
7527;SDS011;3805;49.006;8.514;2023-03-14T09:12:46;1.30;;;0.90;;
7527;SDS011;3805;49.006;8.514;2023-03-14T09:15:36;1.90;;;1.10;;
7527;SDS011;3805;49.006;8.514;2023-03-14T09:18:24;1.33;;;1.20;;
7527;SDS011;3805;49.006;8.514;2023-03-14T09:21:13;1.30;;;1.13;;
7527;SDS011;3805;49.006;8.514;2023-03-14T09:24:02;1.53;;;1.20;;
7527;SDS011;3805;49.006;8.514;2023-03-14T09:26:51;1.20;;;1.10;;
7527;SDS011;3805;49.006;8.514;2023-03-14T09:29:39;3.00;;;1.50;;
7527;SDS011;3805;49.006;8.514;2023-03-14T09:32:29;1.53;;;1.07;;
7527;SDS011;3805;49.006;8.514;2023-03-14T09:35:19;1.40;;;1.20;;
7527;SDS011;3805;49.006;8.514;2023-03-14T09:38:07;1.30;;;1.00;;
7527;SDS011;3805;49.006;8.514;2023-03-14T09:40:57;2.10;;;1.00;;
7527;SDS011;3805;49.006;8.514;2023-03-14T09:43:47;1.50;;;1.30;;
7527;SDS011;3805;49.006;8.514;2023-03-14T09:46:38;1.23;;;1.10;;
7527;SDS011;3805;49.006;8.514;2023-03-14T09:49:28;1.83;;;1.10;;
7527;SDS011;3805;49.006;8.514;2023-03-14T09:52:19;1.70;;;1.00;;
7527;SDS011;3805;49.006;8.514;2023-03-14T09:55:12;1.03;;;0.93;;
7527;SDS011;3805;49.006;8.514;2023-03-14T09:58:02;1.10;;;1.00;;
7527;SDS011;3805;49.006;8.514;2023-03-14T10:00:54;2.10;;;1.27;;
7527;SDS011;3805;49.006;8.514;2023-03-14T10:03:44;1.70;;;0.93;;
7527;SDS011;3805;49.006;8.514;2023-03-14T10:06:34;1.20;;;1.10;;
7527;SDS011;3805;49.006;8.514;2023-03-14T10:09:23;2.00;;;0.90;;
7527;SDS011;3805;49.006;8.514;2023-03-14T10:12:13;1.20;;;1.00;;
7527;SDS011;3805;49.006;8.514;2023-03-14T10:15:03;1.03;;;0.93;;
7527;SDS011;3805;49.006;8.514;2023-03-14T10:17:53;0.90;;;0.80;;
7527;SDS011;3805;49.006;8.514;2023-03-14T10:20:42;1.10;;;1.00;;
7527;SDS011;3805;49.006;8.514;2023-03-14T10:23:33;1.10;;;1.00;;
7527;SDS011;3805;49.006;8.514;2023-03-14T10:26:23;1.10;;;1.00;;
7527;SDS011;3805;49.006;8.514;2023-03-14T10:29:13;1.17;;;1.03;;
7527;SDS011;3805;49.006;8.514;2023-03-14T10:32:02;1.10;;;1.00;;
7527;SDS011;3805;49.006;8.514;2023-03-14T10:35:04;1.60;;;1.13;;
7527;SDS011;3805;49.006;8.514;2023-03-14T10:37:56;1.87;;;1.20;;
7527;SDS011;3805;49.006;8.514;2023-03-14T10:40:47;1.07;;;0.93;;
7527;SDS011;3805;49.006;8.514;2023-03-14T10:43:39;1.93;;;1.10;;
7527;SDS011;3805;49.006;8.514;2023-03-14T10:46:30;2.07;;;1.10;;
7527;SDS011;3805;49.006;8.514;2023-03-14T10:49:23;1.10;;;0.90;;
7527;SDS011;3805;49.006;8.514;2023-03-14T10:52:18;1.27;;;1.17;;
7527;SDS011;3805;49.006;8.514;2023-03-14T10:55:22;1.40;;;0.90;;
7527;SDS011;3805;49.006;8.514;2023-03-14T10:58:24;1.10;;;1.00;;
7527;SDS011;3805;49.006;8.514;2023-03-14T11:01:17;1.27;;;1.07;;
7527;SDS011;3805;49.006;8.514;2023-03-14T11:04:19;2.60;;;1.30;;
7527;SDS011;3805;49.006;8.514;2023-03-14T11:07:15;1.10;;;1.00;;
7527;SDS011;3805;49.006;8.514;2023-03-14T11:10:11;2.40;;;1.27;;
7527;SDS011;3805;49.006;8.514;2023-03-14T11:13:08;3.87;;;1.60;;
7527;SDS011;3805;49.006;8.514;2023-03-14T11:16:06;1.23;;;1.10;;
7527;SDS011;3805;49.006;8.514;2023-03-14T11:19:00;2.33;;;1.30;;
7527;SDS011;3805;49.006;8.514;2023-03-14T11:21:56;4.40;;;1.17;;
7527;SDS011;3805;49.006;8.514;2023-03-14T11:24:49;1.73;;;1.40;;
7527;SDS011;3805;49.006;8.514;2023-03-14T11:27:48;1.63;;;1.47;;
7527;SDS011;3805;49.006;8.514;2023-03-14T11:30:43;1.30;;;1.20;;
7527;SDS011;3805;49.006;8.514;2023-03-14T11:33:40;1.50;;;1.30;;
7527;SDS011;3805;49.006;8.514;2023-03-14T11:36:36;2.90;;;1.40;;
7527;SDS011;3805;49.006;8.514;2023-03-14T11:39:29;2.37;;;1.23;;
7527;SDS011;3805;49.006;8.514;2023-03-14T11:42:23;1.20;;;1.10;;
7527;SDS011;3805;49.006;8.514;2023-03-14T11:45:14;1.37;;;1.27;;
7527;SDS011;3805;49.006;8.514;2023-03-14T11:48:24;2.50;;;1.30;;
7527;SDS011;3805;49.006;8.514;2023-03-14T11:51:20;1.67;;;1.50;;
7527;SDS011;3805;49.006;8.514;2023-03-14T11:54:12;1.70;;;1.60;;
7527;SDS011;3805;49.006;8.514;2023-03-14T11:57:05;1.70;;;1.60;;
7527;SDS011;3805;49.006;8.514;2023-03-14T12:00:00;1.80;;;1.70;;
7527;SDS011;3805;49.006;8.514;2023-03-14T12:02:57;2.33;;;1.80;;
7527;SDS011;3805;49.006;8.514;2023-03-14T12:05:54;2.43;;;1.87;;
7527;SDS011;3805;49.006;8.514;2023-03-14T12:08:50;2.50;;;1.70;;
7527;SDS011;3805;49.006;8.514;2023-03-14T12:11:40;1.97;;;1.87;;
7527;SDS011;3805;49.006;8.514;2023-03-14T12:14:30;1.77;;;1.67;;
7527;SDS011;3805;49.006;8.514;2023-03-14T12:17:21;3.37;;;2.17;;
7527;SDS011;3805;49.006;8.514;2023-03-14T12:20:15;2.50;;;1.80;;
7527;SDS011;3805;49.006;8.514;2023-03-14T12:23:05;2.23;;;2.03;;
7527;SDS011;3805;49.006;8.514;2023-03-14T12:26:20;2.10;;;1.90;;
7527;SDS011;3805;49.006;8.514;2023-03-14T12:29:11;1.80;;;1.70;;
7527;SDS011;3805;49.006;8.514;2023-03-14T12:32:12;1.70;;;1.60;;
7527;SDS011;3805;49.006;8.514;2023-03-14T12:38:25;1.80;;;1.70;;
7527;SDS011;3805;49.006;8.514;2023-03-14T12:41:19;2.40;;;1.70;;
7527;SDS011;3805;49.006;8.514;2023-03-14T12:50:53;3.30;;;1.63;;
7527;SDS011;3805;49.006;8.514;2023-03-14T12:53:46;4.00;;;1.77;;
7527;SDS011;3805;49.006;8.514;2023-03-14T12:57:00;2.00;;;1.80;;
7527;SDS011;3805;49.006;8.514;2023-03-14T12:59:55;1.43;;;1.33;;
7527;SDS011;3805;49.006;8.514;2023-03-14T13:02:45;2.57;;;1.80;;
7527;SDS011;3805;49.006;8.514;2023-03-14T13:05:35;2.10;;;1.43;;
7527;SDS011;3805;49.006;8.514;2023-03-14T13:08:35;2.23;;;1.63;;
7527;SDS011;3805;49.006;8.514;2023-03-14T13:11:27;1.63;;;1.53;;
7527;SDS011;3805;49.006;8.514;2023-03-14T13:14:16;2.40;;;1.40;;
7527;SDS011;3805;49.006;8.514;2023-03-14T13:17:09;1.50;;;1.20;;
7527;SDS011;3805;49.006;8.514;2023-03-14T13:20:20;2.30;;;1.60;;
7527;SDS011;3805;49.006;8.514;2023-03-14T13:23:20;2.00;;;1.27;;
7527;SDS011;3805;49.006;8.514;2023-03-14T13:26:09;3.50;;;1.10;;
7527;SDS011;3805;49.006;8.514;2023-03-14T13:28:59;10.13;;;1.47;;
7527;SDS011;3805;49.006;8.514;2023-03-14T13:31:50;1.70;;;1.20;;
7527;SDS011;3805;49.006;8.514;2023-03-14T13:34:40;1.37;;;1.27;;
7527;SDS011;3805;49.006;8.514;2023-03-14T13:37:30;1.33;;;1.17;;
7527;SDS011;3805;49.006;8.514;2023-03-14T13:40:19;1.73;;;1.37;;
7527;SDS011;3805;49.006;8.514;2023-03-14T13:43:18;1.30;;;1.20;;
7527;SDS011;3805;49.006;8.514;2023-03-14T13:46:12;2.60;;;1.10;;
7527;SDS011;3805;49.006;8.514;2023-03-14T13:49:04;1.20;;;1.10;;
7527;SDS011;3805;49.006;8.514;2023-03-14T13:51:54;4.37;;;1.87;;
7527;SDS011;3805;49.006;8.514;2023-03-14T13:54:43;4.03;;;1.47;;
7527;SDS011;3805;49.006;8.514;2023-03-14T13:57:42;2.67;;;1.27;;
7527;SDS011;3805;49.006;8.514;2023-03-14T14:00:32;4.67;;;1.60;;
7527;SDS011;3805;49.006;8.514;2023-03-14T14:03:20;2.33;;;1.80;;
7527;SDS011;3805;49.006;8.514;2023-03-14T14:06:19;1.30;;;1.20;;
7527;SDS011;3805;49.006;8.514;2023-03-14T14:09:19;2.77;;;1.30;;
7527;SDS011;3805;49.006;8.514;2023-03-14T14:12:13;1.97;;;1.40;;
7527;SDS011;3805;49.006;8.514;2023-03-14T14:15:04;3.43;;;1.70;;
7527;SDS011;3805;49.006;8.514;2023-03-14T14:17:54;1.47;;;1.37;;
7527;SDS011;3805;49.006;8.514;2023-03-14T14:20:46;2.57;;;1.80;;
7527;SDS011;3805;49.006;8.514;2023-03-14T14:23:37;1.90;;;1.40;;
7527;SDS011;3805;49.006;8.514;2023-03-14T14:26:26;4.70;;;2.00;;
7527;SDS011;3805;49.006;8.514;2023-03-14T14:29:20;2.37;;;1.70;;
7527;SDS011;3805;49.006;8.514;2023-03-14T14:32:14;4.33;;;1.73;;
7527;SDS011;3805;49.006;8.514;2023-03-14T14:35:03;5.10;;;1.90;;
7527;SDS011;3805;49.006;8.514;2023-03-14T14:37:53;4.37;;;1.60;;
7527;SDS011;3805;49.006;8.514;2023-03-14T14:40:44;2.60;;;1.80;;
7527;SDS011;3805;49.006;8.514;2023-03-14T14:43:35;3.07;;;2.10;;
7527;SDS011;3805;49.006;8.514;2023-03-14T14:46:26;5.80;;;2.10;;
7527;SDS011;3805;49.006;8.514;2023-03-14T14:49:18;2.67;;;1.40;;
7527;SDS011;3805;49.006;8.514;2023-03-14T14:52:09;3.10;;;2.10;;
7527;SDS011;3805;49.006;8.514;2023-03-14T14:55:01;2.00;;;1.80;;
7527;SDS011;3805;49.006;8.514;2023-03-14T14:57:54;2.40;;;2.07;;
7527;SDS011;3805;49.006;8.514;2023-03-14T15:00:49;3.77;;;2.27;;
7527;SDS011;3805;49.006;8.514;2023-03-14T15:03:41;3.77;;;1.97;;
7527;SDS011;3805;49.006;8.514;2023-03-14T15:06:30;4.60;;;1.73;;
7527;SDS011;3805;49.006;8.514;2023-03-14T15:09:19;2.90;;;1.80;;
7527;SDS011;3805;49.006;8.514;2023-03-14T15:12:08;2.53;;;1.80;;
7527;SDS011;3805;49.006;8.514;2023-03-14T15:15:00;2.80;;;1.83;;
7527;SDS011;3805;49.006;8.514;2023-03-14T15:17:49;5.63;;;1.90;;
7527;SDS011;3805;49.006;8.514;2023-03-14T15:20:38;2.00;;;1.50;;
7527;SDS011;3805;49.006;8.514;2023-03-14T15:23:27;4.30;;;1.97;;
7527;SDS011;3805;49.006;8.514;2023-03-14T15:26:16;2.60;;;1.50;;
7527;SDS011;3805;49.006;8.514;2023-03-14T15:29:06;5.80;;;2.00;;
7527;SDS011;3805;49.006;8.514;2023-03-14T15:32:01;3.00;;;2.20;;
7527;SDS011;3805;49.006;8.514;2023-03-14T15:34:50;4.33;;;2.00;;
7527;SDS011;3805;49.006;8.514;2023-03-14T15:37:39;4.23;;;2.00;;
7527;SDS011;3805;49.006;8.514;2023-03-14T15:40:27;3.00;;;1.50;;
7527;SDS011;3805;49.006;8.514;2023-03-14T15:43:16;4.00;;;1.70;;
7527;SDS011;3805;49.006;8.514;2023-03-14T15:46:07;3.93;;;1.80;;
7527;SDS011;3805;49.006;8.514;2023-03-14T15:48:58;2.90;;;2.27;;
7527;SDS011;3805;49.006;8.514;2023-03-14T15:51:46;4.97;;;2.00;;
7527;SDS011;3805;49.006;8.514;2023-03-14T15:54:35;6.20;;;2.57;;
7527;SDS011;3805;49.006;8.514;2023-03-14T15:57:24;3.27;;;2.10;;
7527;SDS011;3805;49.006;8.514;2023-03-14T16:00:14;4.60;;;1.93;;
7527;SDS011;3805;49.006;8.514;2023-03-14T16:03:05;4.00;;;1.90;;
7527;SDS011;3805;49.006;8.514;2023-03-14T16:05:55;12.23;;;2.33;;
7527;SDS011;3805;49.006;8.514;2023-03-14T16:08:44;3.00;;;2.00;;
7527;SDS011;3805;49.006;8.514;2023-03-14T16:11:33;5.07;;;2.27;;
7527;SDS011;3805;49.006;8.514;2023-03-14T16:14:22;3.40;;;2.00;;
7527;SDS011;3805;49.006;8.514;2023-03-14T16:17:10;5.33;;;2.27;;
7527;SDS011;3805;49.006;8.514;2023-03-14T16:20:02;4.67;;;2.20;;
7527;SDS011;3805;49.006;8.514;2023-03-14T16:22:52;6.23;;;2.03;;
7527;SDS011;3805;49.006;8.514;2023-03-14T16:25:43;2.67;;;1.60;;
7527;SDS011;3805;49.006;8.514;2023-03-14T16:28:41;3.50;;;2.10;;
7527;SDS011;3805;49.006;8.514;2023-03-14T16:31:30;2.63;;;2.10;;
7527;SDS011;3805;49.006;8.514;2023-03-14T16:34:19;3.20;;;2.10;;
7527;SDS011;3805;49.006;8.514;2023-03-14T16:37:08;3.10;;;1.87;;
7527;SDS011;3805;49.006;8.514;2023-03-14T16:39:58;3.30;;;1.97;;
7527;SDS011;3805;49.006;8.514;2023-03-14T16:42:59;4.80;;;2.33;;
7527;SDS011;3805;49.006;8.514;2023-03-14T16:46:11;4.87;;;1.90;;
7527;SDS011;3805;49.006;8.514;2023-03-14T16:49:00;3.27;;;2.03;;
7527;SDS011;3805;49.006;8.514;2023-03-14T16:51:48;2.40;;;1.57;;
7527;SDS011;3805;49.006;8.514;2023-03-14T16:54:37;2.23;;;1.47;;
7527;SDS011;3805;49.006;8.514;2023-03-14T16:57:27;3.77;;;1.80;;
7527;SDS011;3805;49.006;8.514;2023-03-14T17:00:16;1.50;;;1.40;;
7527;SDS011;3805;49.006;8.514;2023-03-14T17:03:05;5.53;;;2.33;;
7527;SDS011;3805;49.006;8.514;2023-03-14T17:05:54;3.60;;;2.30;;
7527;SDS011;3805;49.006;8.514;2023-03-14T17:08:43;4.17;;;2.23;;
7527;SDS011;3805;49.006;8.514;2023-03-14T17:11:32;3.70;;;2.10;;
7527;SDS011;3805;49.006;8.514;2023-03-14T17:14:22;4.57;;;2.27;;
7527;SDS011;3805;49.006;8.514;2023-03-14T17:17:12;3.47;;;2.73;;
7527;SDS011;3805;49.006;8.514;2023-03-14T17:20:01;5.93;;;2.83;;
7527;SDS011;3805;49.006;8.514;2023-03-14T17:22:49;3.10;;;1.70;;
7527;SDS011;3805;49.006;8.514;2023-03-14T17:25:38;9.23;;;2.20;;
7527;SDS011;3805;49.006;8.514;2023-03-14T17:28:27;4.50;;;2.10;;
7527;SDS011;3805;49.006;8.514;2023-03-14T17:31:17;3.90;;;2.40;;
7527;SDS011;3805;49.006;8.514;2023-03-14T17:34:06;3.63;;;2.27;;
7527;SDS011;3805;49.006;8.514;2023-03-14T17:36:57;3.80;;;2.00;;
7527;SDS011;3805;49.006;8.514;2023-03-14T17:39:46;3.40;;;1.73;;
7527;SDS011;3805;49.006;8.514;2023-03-14T17:42:34;3.47;;;2.20;;
7527;SDS011;3805;49.006;8.514;2023-03-14T17:45:23;4.20;;;2.13;;
7527;SDS011;3805;49.006;8.514;2023-03-14T17:48:13;3.00;;;2.47;;
7527;SDS011;3805;49.006;8.514;2023-03-14T17:51:02;5.80;;;2.70;;